Time;durP1;ratioP1;P1;durP2;ratioP2;P2;SDS_P1;SDS_P2;PMS_P1;PMS_P2;Temp;Humidity;BMP_temperature;BMP_pressure;BME280_temperature;BME280_humidity;BME280_pressure;Samples;Min_cycle;Max_cycle;Signal;HPM_P1;HPM_P2
2022/06/13 00:00:08;;;;;;;1.23;0.90;;;;;;;;;;5012559;28;20100;-49
2022/06/13 00:02:35;;;;;;;1.35;0.98;;;;;;;;;;5011847;28;20033;-49
2022/06/13 00:05:01;;;;;;;2.05;0.90;;;;;;;;;;5012543;28;20129;-55
2022/06/13 00:07:27;;;;;;;0.93;0.88;;;;;;;;;;4995049;28;20376;-50
2022/06/13 00:09:53;;;;;;;0.70;0.70;;;;;;;;;;5011290;28;20049;-49
2022/06/13 00:12:19;;;;;;;;;;;;;;;;;;5012006;28;20129;-49
2022/06/13 00:14:45;;;;;;;0.80;0.80;;;;;;;;;;5009327;28;19999;-52
2022/06/13 00:17:12;;;;;;;2.75;1.35;;;;;;;;;;4975801;28;20045;-49
2022/06/13 00:19:38;;;;;;;1.50;1.10;;;;;;;;;;4992276;28;20049;-49
2022/06/13 00:22:05;;;;;;;1.15;0.85;;;;;;;;;;5009309;28;20042;-49
2022/06/13 00:24:31;;;;;;;0.82;0.77;;;;;;;;;;5011162;28;20104;-56
2022/06/13 00:26:57;;;;;;;2.20;0.95;;;;;;;;;;5011079;28;20125;-51
2022/06/13 00:29:23;;;;;;;1.63;0.98;;;;;;;;;;5011681;28;20089;-48
2022/06/13 00:31:49;;;;;;;1.35;0.90;;;;;;;;;;5011494;28;20064;-52
2022/06/13 00:34:16;;;;;;;1.83;0.98;;;;;;;;;;5011137;28;20054;-52
2022/06/13 00:36:42;;;;;;;3.00;1.05;;;;;;;;;;5009060;28;20365;-49
2022/06/13 00:39:08;;;;;;;3.20;0.90;;;;;;;;;;4991484;28;20038;-52
2022/06/13 00:41:35;;;;;;;1.85;1.13;;;;;;;;;;5009368;28;20049;-52
2022/06/13 00:44:01;;;;;;;1.95;0.85;;;;;;;;;;4999524;28;20042;-49
2022/06/13 00:46:30;;;;;;;1.48;0.85;;;;;;;;;;4992405;28;20042;-48
2022/06/13 00:49:01;;;;;;;2.40;0.82;;;;;;;;;;4991637;28;20042;-48
2022/06/13 00:51:28;;;;;;;1.70;0.95;;;;;;;;;;4976400;28;20575;-50
2022/06/13 00:53:54;;;;;;;0.80;0.80;;;;;;;;;;5010299;28;20649;-55
2022/06/13 00:56:22;;;;;;;1.02;0.80;;;;;;;;;;5010873;28;20567;-51
2022/06/13 00:58:57;;;;;;;1.15;0.75;;;;;;;;;;4986606;28;20050;-53
2022/06/13 01:01:24;;;;;;;1.98;0.80;;;;;;;;;;4991991;28;20042;-48
2022/06/13 01:03:51;;;;;;;1.05;0.80;;;;;;;;;;4991519;28;20058;-55
2022/06/13 01:06:18;;;;;;;1.10;0.90;;;;;;;;;;4991996;28;20193;-51
2022/06/13 01:08:44;;;;;;;1.50;0.90;;;;;;;;;;4974876;28;20042;-53
2022/06/13 01:11:18;;;;;;;1.30;0.90;;;;;;;;;;5010112;28;20045;-53
2022/06/13 01:14:03;;;;;;;1.25;0.88;;;;;;;;;;5010575;28;20113;-48
2022/06/13 01:16:35;;;;;;;1.58;0.85;;;;;;;;;;5010000;28;20044;-52
2022/06/13 01:19:13;;;;;;;1.35;0.80;;;;;;;;;;4991548;28;20046;-51
2022/06/13 01:22:02;;;;;;;1.88;0.98;;;;;;;;;;4991066;28;20048;-52
2022/06/13 01:24:46;;;;;;;1.33;0.80;;;;;;;;;;4948453;28;20197;-51
2022/06/13 01:27:22;;;;;;;0.80;0.80;;;;;;;;;;5010439;28;20060;-49
2022/06/13 01:29:50;;;;;;;0.85;0.80;;;;;;;;;;5010547;28;20068;-50
2022/06/13 01:32:18;;;;;;;3.33;1.00;;;;;;;;;;5011009;28;20053;-48
2022/06/13 01:34:51;;;;;;;1.27;1.00;;;;;;;;;;4992989;28;20050;-48
2022/06/13 01:37:23;;;;;;;0.80;0.80;;;;;;;;;;5011140;28;20049;-48
2022/06/13 01:40:03;;;;;;;1.02;0.90;;;;;;;;;;5004858;28;20046;-49
2022/06/13 01:42:52;;;;;;;1.65;1.00;;;;;;;;;;4990631;28;20349;-53
2022/06/13 01:45:21;;;;;;;2.90;1.33;;;;;;;;;;4995364;28;20104;-48
2022/06/13 01:48:06;;;;;;;0.80;0.80;;;;;;;;;;5017017;28;20053;-50
2022/06/13 01:50:44;;;;;;;1.35;0.80;;;;;;;;;;5016926;28;20109;-51
2022/06/13 01:53:28;;;;;;;1.13;0.75;;;;;;;;;;5017284;28;20113;-52
2022/06/13 01:55:57;;;;;;;1.08;0.80;;;;;;;;;;4994973;28;20050;-49
2022/06/13 01:58:29;;;;;;;1.10;0.90;;;;;;;;;;4996069;28;20467;-48
2022/06/13 02:01:01;;;;;;;0.90;0.80;;;;;;;;;;4996936;28;20384;-48
2022/06/13 02:03:33;;;;;;;0.80;0.80;;;;;;;;;;4997970;28;20435;-49
2022/06/13 02:06:05;;;;;;;1.02;0.80;;;;;;;;;;4995816;28;20073;-54
2022/06/13 02:08:44;;;;;;;1.08;0.85;;;;;;;;;;5017503;28;20046;-52
2022/06/13 02:11:19;;;;;;;2.00;0.70;;;;;;;;;;5000871;28;20081;-51
2022/06/13 02:13:49;;;;;;;1.20;1.00;;;;;;;;;;4996946;28;20429;-48
2022/06/13 02:16:18;;;;;;;1.55;0.73;;;;;;;;;;4997470;28;20054;-52
2022/06/13 02:19:05;;;;;;;1.90;1.00;;;;;;;;;;5016930;28;20049;-53
2022/06/13 02:21:36;;;;;;;1.02;0.90;;;;;;;;;;5016977;28;20048;-52
2022/06/13 02:24:04;;;;;;;0.88;0.80;;;;;;;;;;5016084;28;20722;-49
2022/06/13 02:26:34;;;;;;;1.60;1.00;;;;;;;;;;5015751;28;20331;-48
2022/06/13 02:29:08;;;;;;;1.42;1.02;;;;;;;;;;5016233;28;20399;-52
2022/06/13 02:31:45;;;;;;;1.30;1.13;;;;;;;;;;5013265;28;20041;-52
2022/06/13 02:34:16;;;;;;;3.78;0.93;;;;;;;;;;4980033;28;20384;-53
2022/06/13 02:36:48;;;;;;;1.20;1.10;;;;;;;;;;4979809;28;20076;-56
2022/06/13 02:39:18;;;;;;;0.88;0.88;;;;;;;;;;4996612;28;20160;-51
2022/06/13 02:42:04;;;;;;;1.35;1.10;;;;;;;;;;4996091;28;20121;-56
2022/06/13 02:44:37;;;;;;;3.53;1.38;;;;;;;;;;4980330;28;20635;-50
2022/06/13 02:47:12;;;;;;;1.48;1.00;;;;;;;;;;4997039;28;20065;-51
2022/06/13 02:50:00;;;;;;;1.10;0.90;;;;;;;;;;4997743;28;20173;-50
2022/06/13 02:52:28;;;;;;;2.35;1.00;;;;;;;;;;5016999;28;20046;-50
2022/06/13 02:54:56;;;;;;;1.23;0.80;;;;;;;;;;5015677;28;20081;-49
2022/06/13 02:57:29;;;;;;;1.33;1.00;;;;;;;;;;5013511;28;20480;-50
2022/06/13 03:00:14;;;;;;;1.13;1.02;;;;;;;;;;5013093;28;20050;-54
2022/06/13 03:02:52;;;;;;;1.10;0.98;;;;;;;;;;5013743;28;20045;-49
2022/06/13 03:05:21;;;;;;;2.22;1.00;;;;;;;;;;5009919;28;20487;-51
2022/06/13 03:07:57;;;;;;;1.60;1.15;;;;;;;;;;4993403;28;20118;-57
2022/06/13 03:10:28;;;;;;;0.82;0.80;;;;;;;;;;5001948;28;20037;-48
2022/06/13 03:12:59;;;;;;;0.80;0.80;;;;;;;;;;5012056;28;20063;-49
2022/06/13 03:15:30;;;;;;;1.50;0.85;;;;;;;;;;5013477;28;20042;-53
2022/06/13 03:18:03;;;;;;;1.85;1.13;;;;;;;;;;5012741;28;20392;-51
2022/06/13 03:20:30;;;;;;;1.30;1.00;;;;;;;;;;5013422;28;20086;-53
2022/06/13 03:23:10;;;;;;;1.52;1.13;;;;;;;;;;4993642;28;20041;-52
2022/06/13 03:25:49;;;;;;;0.95;0.82;;;;;;;;;;4975967;28;20064;-51
2022/06/13 03:28:33;;;;;;;0.88;0.88;;;;;;;;;;4992961;28;20049;-52
2022/06/13 03:31:04;;;;;;;0.98;0.90;;;;;;;;;;4975906;28;20503;-50
2022/06/13 03:33:40;;;;;;;1.13;0.70;;;;;;;;;;4992070;28;20056;-52
2022/06/13 03:36:24;;;;;;;3.08;0.90;;;;;;;;;;4993084;28;20046;-53
2022/06/13 03:38:54;;;;;;;2.63;1.08;;;;;;;;;;4994469;28;20046;-58
2022/06/13 03:41:22;;;;;;;2.17;1.10;;;;;;;;;;5012427;28;20049;-55
2022/06/13 03:44:00;;;;;;;1.63;0.70;;;;;;;;;;4995117;28;20773;-58
2022/06/13 03:46:44;;;;;;;1.52;1.10;;;;;;;;;;5013088;28;20049;-53
2022/06/13 03:49:25;;;;;;;1.30;0.80;;;;;;;;;;5012360;28;20432;-51
2022/06/13 03:51:53;;;;;;;1.60;0.93;;;;;;;;;;5012346;28;20038;-54
2022/06/13 03:54:25;;;;;;;1.05;0.82;;;;;;;;;;5012108;28;20045;-49
2022/06/13 03:56:52;;;;;;;1.35;0.80;;;;;;;;;;4997317;28;20049;-59
2022/06/13 03:59:22;;;;;;;1.75;0.80;;;;;;;;;;4994587;28;20038;-49
2022/06/13 04:01:52;;;;;;;0.88;0.80;;;;;;;;;;4975829;28;20046;-51
2022/06/13 04:04:19;;;;;;;1.15;0.80;;;;;;;;;;4993093;28;20046;-51
2022/06/13 04:06:45;;;;;;;1.25;0.73;;;;;;;;;;4992991;28;20587;-49
2022/06/13 04:09:28;;;;;;;1.30;1.00;;;;;;;;;;4991510;28;20144;-52
2022/06/13 04:12:06;;;;;;;3.15;1.20;;;;;;;;;;4991655;28;20503;-49
2022/06/13 04:14:51;;;;;;;1.13;1.02;;;;;;;;;;4992752;28;20046;-55
2022/06/13 04:17:32;;;;;;;1.75;1.02;;;;;;;;;;5011280;28;20132;-50
2022/06/13 04:20:23;;;;;;;2.05;0.98;;;;;;;;;;5011181;28;20042;-53
2022/06/13 04:22:53;;;;;;;1.05;0.80;;;;;;;;;;4992674;28;20550;-51
2022/06/13 04:25:19;;;;;;;0.90;0.80;;;;;;;;;;4999766;28;20046;-48
2022/06/13 04:27:44;;;;;;;;;;;;;;;;;;5011482;28;20042;-49
2022/06/13 04:30:14;;;;;;;1.30;0.80;;;;;;;;;;5011582;28;19921;-50
2022/06/13 04:32:59;;;;;;;1.15;0.73;;;;;;;;;;5007731;28;20066;-48
2022/06/13 04:35:25;;;;;;;1.30;0.80;;;;;;;;;;4992506;28;20125;-48
2022/06/13 04:37:52;;;;;;;1.52;1.00;;;;;;;;;;4992433;28;20038;-51
2022/06/13 04:40:20;;;;;;;1.15;0.80;;;;;;;;;;4974198;28;20101;-49
2022/06/13 04:42:48;;;;;;;1.40;0.93;;;;;;;;;;5010195;28;20041;-51
2022/06/13 04:45:19;;;;;;;2.28;1.23;;;;;;;;;;5006365;28;20057;-47
2022/06/13 04:47:45;;;;;;;2.75;1.10;;;;;;;;;;4998316;28;20037;-48
2022/06/13 04:50:20;;;;;;;2.13;1.20;;;;;;;;;;5011208;28;20041;-51
2022/06/13 04:52:49;;;;;;;1.45;0.98;;;;;;;;;;5006953;28;20085;-48
2022/06/13 04:55:28;;;;;;;3.00;1.00;;;;;;;;;;5010461;28;20134;-50
2022/06/13 04:57:54;;;;;;;2.05;1.02;;;;;;;;;;4993367;28;20049;-56
2022/06/13 05:00:20;;;;;;;;;;;;;;;;;;5011848;28;20099;-50
2022/06/13 05:02:51;;;;;;;2.88;1.02;;;;;;;;;;5011414;28;19921;-48
2022/06/13 05:05:30;;;;;;;2.55;1.50;;;;;;;;;;4993595;28;20136;-48
2022/06/13 05:07:56;;;;;;;2.03;1.30;;;;;;;;;;4992923;28;20096;-58
2022/06/13 05:10:24;;;;;;;2.38;1.27;;;;;;;;;;5009930;28;20050;-51
2022/06/13 05:12:51;;;;;;;1.95;1.02;;;;;;;;;;4990941;28;20042;-51
2022/06/13 05:15:22;;;;;;;2.38;1.25;;;;;;;;;;4991283;28;20125;-52
2022/06/13 05:18:07;;;;;;;1.58;1.00;;;;;;;;;;4991915;28;20054;-48
2022/06/13 05:20:43;;;;;;;1.50;1.10;;;;;;;;;;4974068;28;20474;-49
2022/06/13 05:23:28;;;;;;;1.27;0.88;;;;;;;;;;4973653;28;20383;-48
2022/06/13 05:25:56;;;;;;;1.73;1.23;;;;;;;;;;4991025;28;20136;-47
2022/06/13 05:28:23;;;;;;;2.63;1.05;;;;;;;;;;4995918;28;20042;-51
2022/06/13 05:30:51;;;;;;;2.10;1.08;;;;;;;;;;5010944;28;20452;-47
2022/06/13 05:33:18;;;;;;;2.03;1.23;;;;;;;;;;5010489;28;20208;-48
2022/06/13 05:35:45;;;;;;;4.05;1.10;;;;;;;;;;5011051;28;20056;-52
2022/06/13 05:38:18;;;;;;;2.72;1.10;;;;;;;;;;5000804;28;20046;-48
2022/06/13 05:40:45;;;;;;;1.42;1.10;;;;;;;;;;4990679;28;20065;-47
2022/06/13 05:43:12;;;;;;;1.10;1.00;;;;;;;;;;4989984;28;20053;-49
2022/06/13 05:45:39;;;;;;;1.63;1.10;;;;;;;;;;4991251;28;20043;-52
2022/06/13 05:48:05;;;;;;;3.08;1.10;;;;;;;;;;5004456;28;20141;-48
2022/06/13 05:50:33;;;;;;;1.30;1.00;;;;;;;;;;5011011;28;20046;-51
2022/06/13 05:53:00;;;;;;;2.00;0.98;;;;;;;;;;5004390;28;20464;-56
2022/06/13 05:55:26;;;;;;;1.05;0.85;;;;;;;;;;4997547;28;20124;-49
2022/06/13 05:57:52;;;;;;;1.98;1.05;;;;;;;;;;4991963;28;20462;-51
2022/06/13 06:00:20;;;;;;;1.80;0.90;;;;;;;;;;5009776;28;20042;-48
2022/06/13 06:02:46;;;;;;;1.75;0.98;;;;;;;;;;5009861;28;20038;-51
2022/06/13 06:05:13;;;;;;;1.63;1.08;;;;;;;;;;5010093;28;20125;-47
2022/06/13 06:07:39;;;;;;;1.27;0.93;;;;;;;;;;5010127;28;20048;-49
2022/06/13 06:10:06;;;;;;;0.90;0.90;;;;;;;;;;5004135;28;20100;-55
2022/06/13 06:12:32;;;;;;;1.85;1.20;;;;;;;;;;4996663;28;20057;-53
2022/06/13 06:14:58;;;;;;;2.55;1.10;;;;;;;;;;4992743;28;20050;-52
2022/06/13 06:17:24;;;;;;;4.05;1.15;;;;;;;;;;5007441;28;20042;-52
2022/06/13 06:19:50;;;;;;;;;;;;;;;;;;4991524;28;20495;-50
2022/06/13 06:22:16;;;;;;;3.88;0.98;;;;;;;;;;5007750;28;19921;-51
2022/06/13 06:24:42;;;;;;;1.73;1.10;;;;;;;;;;5009939;28;20085;-54
2022/06/13 06:27:12;;;;;;;0.98;0.80;;;;;;;;;;5009393;28;20095;-49
2022/06/13 06:29:38;;;;;;;3.95;1.38;;;;;;;;;;5010833;28;20432;-50
2022/06/13 06:32:04;;;;;;;;;;;;;;;;;;4993101;28;20677;-54
2022/06/13 06:34:31;;;;;;;;;;;;;;;;;;5014445;28;20403;-51
2022/06/13 06:36:58;;;;;;;1.48;1.02;;;;;;;;;;5014334;28;19976;-52
2022/06/13 06:39:24;;;;;;;0.93;0.80;;;;;;;;;;5003610;28;20147;-51
2022/06/13 06:41:51;;;;;;;6.25;1.45;;;;;;;;;;5013183;28;20519;-48
2022/06/13 06:44:17;;;;;;;1.73;1.05;;;;;;;;;;5008835;28;20132;-54
2022/06/13 06:46:44;;;;;;;2.05;1.10;;;;;;;;;;4997371;28;20083;-55
2022/06/13 06:49:10;;;;;;;1.58;0.88;;;;;;;;;;4993936;28;20171;-52
2022/06/13 06:51:36;;;;;;;2.50;1.30;;;;;;;;;;4992739;28;20122;-56
2022/06/13 07:02:17;;;;;;;3.00;1.02;;;;;;;;;;4996160;28;20395;-53
2022/06/13 07:04:43;;;;;;;1.52;0.98;;;;;;;;;;4999136;28;20069;-56
2022/06/13 07:07:09;;;;;;;2.92;1.15;;;;;;;;;;4997280;28;20115;-55
2022/06/13 07:09:35;;;;;;;2.80;1.20;;;;;;;;;;4992101;28;20050;-52
2022/06/13 07:12:01;;;;;;;;;;;;;;;;;;4994670;28;20117;-52
2022/06/13 07:14:33;;;;;;;1.75;1.13;;;;;;;;;;4996318;28;20084;-49
2022/06/13 07:17:00;;;;;;;2.50;1.20;;;;;;;;;;4995610;28;20069;-48
2022/06/13 07:19:27;;;;;;;5.30;1.58;;;;;;;;;;5003550;28;20605;-53
2022/06/13 07:21:53;;;;;;;3.78;1.50;;;;;;;;;;5007961;28;20494;-56
2022/06/13 07:24:20;;;;;;;3.00;1.17;;;;;;;;;;5007863;28;20483;-53
2022/06/13 07:26:47;;;;;;;2.63;1.10;;;;;;;;;;5012368;28;20046;-48
2022/06/13 07:29:13;;;;;;;2.38;1.20;;;;;;;;;;5012450;28;20053;-56
2022/06/13 07:31:41;;;;;;;3.40;1.65;;;;;;;;;;5013084;28;20398;-49
2022/06/13 07:34:11;;;;;;;2.58;1.10;;;;;;;;;;5008705;28;20053;-52
2022/06/13 07:36:37;;;;;;;2.92;1.20;;;;;;;;;;5009398;28;20211;-52
2022/06/13 07:39:03;;;;;;;;;;;;;;;;;;4981254;28;20034;-49
2022/06/13 07:41:29;;;;;;;5.22;1.25;;;;;;;;;;4998385;28;19932;-48
2022/06/13 07:43:56;;;;;;;2.70;1.25;;;;;;;;;;5012388;28;20133;-55
2022/06/13 07:46:25;;;;;;;3.47;1.30;;;;;;;;;;5012308;28;20073;-52
2022/06/13 07:48:51;;;;;;;1.90;1.10;;;;;;;;;;5012681;28;20038;-53
2022/06/13 07:51:17;;;;;;;2.92;1.33;;;;;;;;;;5012149;28;20053;-49
2022/06/13 07:53:43;;;;;;;3.13;1.10;;;;;;;;;;5012503;28;20037;-51
2022/06/13 07:56:14;;;;;;;2.03;1.20;;;;;;;;;;5006387;28;20049;-50
2022/06/13 07:58:41;;;;;;;2.28;1.02;;;;;;;;;;5004224;28;20399;-49
2022/06/13 08:01:07;;;;;;;2.55;1.23;;;;;;;;;;5012468;28;20495;-52
2022/06/13 08:03:34;;;;;;;6.60;1.65;;;;;;;;;;5011898;28;20498;-52
2022/06/13 08:06:01;;;;;;;1.58;1.10;;;;;;;;;;5012287;28;20049;-48
2022/06/13 08:08:27;;;;;;;2.88;1.20;;;;;;;;;;5011801;28;20360;-49
2022/06/13 08:10:55;;;;;;;2.53;1.02;;;;;;;;;;5011362;28;20500;-51
2022/06/13 08:13:22;;;;;;;3.53;1.33;;;;;;;;;;5010660;28;20053;-52
2022/06/13 08:15:48;;;;;;;2.70;1.20;;;;;;;;;;5012230;28;20053;-52
2022/06/13 08:18:14;;;;;;;3.63;1.38;;;;;;;;;;4994242;28;20054;-56
2022/06/13 08:20:41;;;;;;;1.88;1.00;;;;;;;;;;5003260;28;20040;-52
2022/06/13 08:23:08;;;;;;;3.72;1.50;;;;;;;;;;4997750;28;20049;-48
2022/06/13 08:25:36;;;;;;;2.35;1.10;;;;;;;;;;4984668;28;20643;-48
2022/06/13 08:28:02;;;;;;;2.33;1.20;;;;;;;;;;5000348;28;20056;-59
2022/06/13 08:30:32;;;;;;;2.85;0.85;;;;;;;;;;4985405;28;20100;-51
2022/06/13 08:32:58;;;;;;;4.90;1.30;;;;;;;;;;5003028;28;20051;-49
2022/06/13 08:35:26;;;;;;;1.42;0.90;;;;;;;;;;4994457;28;20062;-47
2022/06/13 08:37:52;;;;;;;3.35;1.00;;;;;;;;;;4997510;28;20046;-51
2022/06/13 08:40:18;;;;;;;;;;;;;;;;;;4988554;28;20038;-48
2022/06/13 08:42:52;;;;;;;1.73;1.15;;;;;;;;;;5010895;28;19921;-51
2022/06/13 08:45:25;;;;;;;1.25;0.90;;;;;;;;;;5007197;28;20166;-48
2022/06/13 08:47:59;;;;;;;2.90;0.98;;;;;;;;;;4996114;28;20080;-51
2022/06/13 08:50:33;;;;;;;3.63;0.93;;;;;;;;;;4977749;28;20527;-47
2022/06/13 08:53:04;;;;;;;4.18;1.25;;;;;;;;;;5006068;28;20553;-49
2022/06/13 08:55:30;;;;;;;3.30;1.00;;;;;;;;;;5009568;28;20077;-53
2022/06/13 08:57:56;;;;;;;;;;;;;;;;;;5011010;28;20061;-48
2022/06/13 09:00:24;;;;;;;2.63;1.10;;;;;;;;;;5010885;28;19971;-51
2022/06/13 09:02:52;;;;;;;2.80;0.88;;;;;;;;;;5011300;28;20042;-51
2022/06/13 09:05:22;;;;;;;2.20;0.77;;;;;;;;;;5010531;28;20442;-55
2022/06/13 09:08:07;;;;;;;1.35;1.10;;;;;;;;;;5006301;28;20045;-51
2022/06/13 09:11:00;;;;;;;1.75;0.85;;;;;;;;;;4998856;28;20053;-50
2022/06/13 09:13:29;;;;;;;1.30;0.80;;;;;;;;;;4974235;28;20076;-49
2022/06/13 09:16:00;;;;;;;1.90;0.80;;;;;;;;;;5011169;28;20049;-52
2022/06/13 09:18:46;;;;;;;2.08;0.90;;;;;;;;;;4997585;28;20053;-49
2022/06/13 09:21:18;;;;;;;1.73;0.80;;;;;;;;;;5010865;28;20125;-53
2022/06/13 09:24:01;;;;;;;2.42;1.00;;;;;;;;;;5010723;28;20037;-50
2022/06/13 09:26:27;;;;;;;4.68;1.15;;;;;;;;;;5009318;28;20050;-52
2022/06/13 09:28:53;;;;;;;;;;;;;;;;;;5007893;28;20052;-48
2022/06/13 09:31:29;;;;;;;1.92;1.23;;;;;;;;;;4995712;28;19925;-55
2022/06/13 09:33:55;;;;;;;;;;;;;;;;;;4991984;28;20058;-49
2022/06/13 09:36:33;;;;;;;3.05;0.98;;;;;;;;;;5010409;28;19923;-55
2022/06/13 09:39:00;;;;;;;3.90;1.38;;;;;;;;;;4992529;28;20375;-56
2022/06/13 09:41:29;;;;;;;6.38;1.02;;;;;;;;;;5009720;28;20042;-58
2022/06/13 09:43:58;;;;;;;5.60;0.88;;;;;;;;;;5010436;28;20038;-54
2022/06/13 09:46:41;;;;;;;3.55;0.80;;;;;;;;;;4993376;28;20054;-54
2022/06/13 09:49:07;;;;;;;7.65;1.30;;;;;;;;;;4992958;28;20441;-54
2022/06/13 09:51:35;;;;;;;;;;;;;;;;;;5000378;28;20117;-54
2022/06/13 09:54:10;;;;;;;7.78;1.85;;;;;;;;;;5006760;28;19922;-53
2022/06/13 09:56:51;;;;;;;7.35;1.65;;;;;;;;;;4995136;28;20041;-54
2022/06/13 09:59:17;;;;;;;9.85;1.40;;;;;;;;;;5004640;28;20052;-56
2022/06/13 10:01:44;;;;;;;;;;;;;;;;;;5009628;28;20050;-49
2022/06/13 10:04:10;;;;;;;;;;;;;;;;;;4993427;28;19929;-58
2022/06/13 10:06:41;;;;;;;10.00;1.20;;;;;;;;;;5011014;28;19917;-53
2022/06/13 10:09:07;;;;;;;6.45;1.10;;;;;;;;;;5013035;28;20466;-53
2022/06/13 10:11:33;;;;;;;;;;;;;;;;;;5009602;28;20395;-55
2022/06/13 10:14:06;;;;;;;2.28;0.90;;;;;;;;;;5009937;28;19921;-55
2022/06/13 10:16:52;;;;;;;2.33;0.70;;;;;;;;;;5013774;28;20049;-55
2022/06/13 10:19:29;;;;;;;2.90;0.80;;;;;;;;;;4961089;28;20132;-52
2022/06/13 10:22:14;;;;;;;3.30;1.00;;;;;;;;;;5013388;28;20118;-52
2022/06/13 10:24:49;;;;;;;4.55;1.15;;;;;;;;;;5009719;28;20383;-55
2022/06/13 10:27:15;;;;;;;2.03;0.90;;;;;;;;;;5012775;28;20407;-52
2022/06/13 10:29:41;;;;;;;5.32;0.82;;;;;;;;;;5012790;28;20046;-54
2022/06/13 10:32:07;;;;;;;;;;;;;;;;;;5012286;28;20041;-54
2022/06/13 10:34:36;;;;;;;2.85;1.02;;;;;;;;;;5009772;28;19917;-52
2022/06/13 10:37:12;;;;;;;1.48;0.82;;;;;;;;;;5012480;28;20533;-52
2022/06/13 10:39:38;;;;;;;2.85;0.65;;;;;;;;;;5009414;28;20077;-56
2022/06/13 10:42:07;;;;;;;2.00;0.70;;;;;;;;;;5012071;28;20083;-52
2022/06/13 10:44:34;;;;;;;2.67;1.00;;;;;;;;;;5012558;28;20049;-51
2022/06/13 10:47:06;;;;;;;3.75;0.93;;;;;;;;;;5013179;28;20041;-53
2022/06/13 10:49:36;;;;;;;5.35;0.88;;;;;;;;;;4988073;28;20073;-53
2022/06/13 10:52:14;;;;;;;0.95;0.50;;;;;;;;;;5003841;28;20065;-51
2022/06/13 10:54:44;;;;;;;1.05;0.70;;;;;;;;;;4999475;28;20369;-53
2022/06/13 10:57:12;;;;;;;1.58;0.60;;;;;;;;;;4994771;28;20069;-50
2022/06/13 10:59:39;;;;;;;2.55;0.90;;;;;;;;;;4999837;28;20117;-54
2022/06/13 11:02:06;;;;;;;0.70;0.70;;;;;;;;;;4995711;28;20038;-50
2022/06/13 11:04:37;;;;;;;1.88;0.90;;;;;;;;;;4990880;28;20136;-56
2022/06/13 11:07:14;;;;;;;2.38;0.82;;;;;;;;;;4996801;28;20057;-53
2022/06/13 11:09:43;;;;;;;2.08;1.00;;;;;;;;;;4994137;28;20069;-54
2022/06/13 11:12:42;;;;;;;0.88;0.70;;;;;;;;;;4991631;28;20042;-54
2022/06/13 11:24:30;;;;;;;1.17;0.57;;;;;;;;;;5000635;28;20060;-58
2022/06/13 11:29:41;;;;;;;1.05;0.50;;;;;;;;;;4992002;28;20695;-49
2022/06/13 11:32:19;;;;;;;2.42;0.60;;;;;;;;;;4997620;28;20113;-53
2022/06/13 11:34:45;;;;;;;0.60;0.60;;;;;;;;;;4994212;28;20439;-55
2022/06/13 11:37:14;;;;;;;1.95;0.70;;;;;;;;;;4992326;28;20038;-54
2022/06/13 11:39:42;;;;;;;2.10;0.50;;;;;;;;;;4994969;28;20044;-49
2022/06/13 11:42:13;;;;;;;1.17;0.90;;;;;;;;;;5009800;28;20042;-49
2022/06/13 11:44:42;;;;;;;1.45;0.63;;;;;;;;;;5012247;28;20077;-49
2022/06/13 11:47:09;;;;;;;0.52;0.40;;;;;;;;;;4993294;28;20042;-53
2022/06/13 11:49:35;;;;;;;0.60;0.60;;;;;;;;;;5007996;28;20116;-50
2022/06/13 11:52:05;;;;;;;1.58;0.68;;;;;;;;;;5007988;28;20504;-59
2022/06/13 11:54:36;;;;;;;0.70;0.47;;;;;;;;;;5010647;28;20041;-61
2022/06/13 11:57:11;;;;;;;1.23;0.73;;;;;;;;;;5011957;28;20049;-57
2022/06/13 11:59:44;;;;;;;4.53;1.45;;;;;;;;;;5001713;28;20392;-58
2022/06/13 12:02:17;;;;;;;19.35;1.58;;;;;;;;;;5011911;28;20455;-58
2022/06/13 12:04:45;;;;;;;10.63;1.75;;;;;;;;;;5011635;28;20050;-59
2022/06/13 12:07:21;;;;;;;6.45;1.40;;;;;;;;;;4995173;28;20076;-58
2022/06/13 12:09:52;;;;;;;6.50;1.33;;;;;;;;;;5010550;28;20475;-59
2022/06/13 12:12:18;;;;;;;11.65;2.08;;;;;;;;;;5011576;28;20048;-57
2022/06/13 12:14:44;;;;;;;6.30;1.30;;;;;;;;;;5000803;28;20092;-58
2022/06/13 12:17:17;;;;;;;11.70;2.00;;;;;;;;;;5010452;28;20046;-59
2022/06/13 12:19:55;;;;;;;11.88;1.58;;;;;;;;;;5011196;28;20081;-58
2022/06/13 12:22:37;;;;;;;9.48;1.50;;;;;;;;;;5001431;28;20077;-58
2022/06/13 12:25:15;;;;;;;13.95;2.22;;;;;;;;;;5011266;28;20065;-57
2022/06/13 12:27:44;;;;;;;11.13;2.15;;;;;;;;;;4993903;28;20038;-58
2022/06/13 12:30:29;;;;;;;14.90;1.73;;;;;;;;;;4991156;28;20042;-57
2022/06/13 12:33:04;;;;;;;17.85;2.35;;;;;;;;;;4978082;28;20877;-57
2022/06/13 12:35:46;;;;;;;29.90;2.72;;;;;;;;;;5009296;28;20088;-58
2022/06/13 12:38:38;;;;;;;16.02;2.17;;;;;;;;;;5005804;28;20088;-58
2022/06/13 12:41:07;;;;;;;17.10;1.88;;;;;;;;;;5000905;28;20054;-58
2022/06/13 12:43:52;;;;;;;21.00;1.90;;;;;;;;;;4995669;28;20034;-57
2022/06/13 12:46:41;;;;;;;14.38;2.03;;;;;;;;;;4997842;28;20053;-58
2022/06/13 12:49:13;;;;;;;4.95;1.45;;;;;;;;;;4990546;28;20050;-57
2022/06/13 12:51:54;;;;;;;7.68;1.30;;;;;;;;;;5010488;28;20538;-57
2022/06/13 12:54:23;;;;;;;6.72;1.45;;;;;;;;;;5008279;28;20052;-57
2022/06/13 12:56:56;;;;;;;5.75;1.20;;;;;;;;;;5002246;28;20052;-58
2022/06/13 12:59:37;;;;;;;3.63;1.23;;;;;;;;;;5009786;28;20077;-57
2022/06/13 13:02:15;;;;;;;8.27;1.92;;;;;;;;;;5011578;28;20042;-57
2022/06/13 13:04:50;;;;;;;4.82;0.90;;;;;;;;;;5010681;28;20044;-59
2022/06/13 13:07:22;;;;;;;2.88;1.10;;;;;;;;;;5011448;28;20387;-57
2022/06/13 13:10:06;;;;;;;5.60;1.95;;;;;;;;;;5009908;28;20049;-57
2022/06/13 13:12:32;;;;;;;3.63;0.98;;;;;;;;;;5010489;28;20060;-58
2022/06/13 13:14:58;;;;;;;;;;;;;;;;;;5010949;28;20174;-57
2022/06/13 13:17:31;;;;;;;6.80;1.58;;;;;;;;;;5010692;28;20282;-58
2022/06/13 13:20:12;;;;;;;7.65;0.95;;;;;;;;;;5010499;28;20675;-57
2022/06/13 13:22:45;;;;;;;4.40;1.20;;;;;;;;;;5010680;28;20049;-60
2022/06/13 13:25:21;;;;;;;2.78;1.27;;;;;;;;;;5010215;28;20052;-57
2022/06/13 13:27:53;;;;;;;1.50;0.95;;;;;;;;;;5009877;28;20364;-57
2022/06/13 13:30:21;;;;;;;6.90;1.02;;;;;;;;;;5010806;28;20077;-58
2022/06/13 13:32:50;;;;;;;4.70;1.00;;;;;;;;;;4966663;28;20104;-57
2022/06/13 13:35:22;;;;;;;6.75;1.17;;;;;;;;;;5007723;28;20057;-57
2022/06/13 13:37:52;;;;;;;6.63;1.65;;;;;;;;;;5010493;28;20076;-57
2022/06/13 13:40:33;;;;;;;4.53;1.45;;;;;;;;;;5009910;28;20379;-57
2022/06/13 13:42:59;;;;;;;3.47;0.98;;;;;;;;;;4987943;28;20527;-58
2022/06/13 13:45:25;;;;;;;;;;;;;;;;;;5007720;28;20515;-57
2022/06/13 13:47:54;;;;;;;3.22;1.08;;;;;;;;;;4993005;28;20004;-58
2022/06/13 13:50:26;;;;;;;3.80;1.27;;;;;;;;;;5010642;28;20077;-57
2022/06/13 13:53:00;;;;;;;2.85;1.00;;;;;;;;;;5010240;28;20038;-58
2022/06/13 13:55:39;;;;;;;4.53;0.90;;;;;;;;;;4991800;28;20054;-57
2022/06/13 13:58:16;;;;;;;8.32;1.55;;;;;;;;;;5008448;28;20041;-57
2022/06/13 14:00:52;;;;;;;3.33;1.35;;;;;;;;;;4991875;28;20060;-59
2022/06/13 14:03:18;;;;;;;3.50;1.02;;;;;;;;;;5001795;28;20125;-57
2022/06/13 14:05:45;;;;;;;8.48;0.98;;;;;;;;;;4998846;28;20050;-57
2022/06/13 14:08:11;;;;;;;5.93;1.27;;;;;;;;;;5000463;28;20495;-57
2022/06/13 14:10:41;;;;;;;1.88;0.90;;;;;;;;;;5007093;28;20108;-58
2022/06/13 14:13:07;;;;;;;2.90;0.80;;;;;;;;;;5009764;28;20046;-57
2022/06/13 14:15:39;;;;;;;2.05;0.90;;;;;;;;;;5010478;28;20144;-57
2022/06/13 14:18:06;;;;;;;2.83;0.75;;;;;;;;;;5009805;28;20056;-57
2022/06/13 14:20:33;;;;;;;2.42;0.65;;;;;;;;;;4992924;28;20042;-59
2022/06/13 14:22:59;;;;;;;;;;;;;;;;;;5010330;28;20044;-58
2022/06/13 14:25:27;;;;;;;0.50;0.50;;;;;;;;;;5009337;28;19929;-59
2022/06/13 14:27:53;;;;;;;3.83;0.90;;;;;;;;;;5005523;28;20289;-57
2022/06/13 14:33:06;;;;;;;;;;;;;;;;;;4990337;28;20084;-57
2022/06/13 14:35:53;;;;;;;3.97;0.80;;;;;;;;;;5004476;28;20364;-58
2022/06/13 14:38:26;;;;;;;2.15;0.90;;;;;;;;;;4996153;28;20049;-57
2022/06/13 14:40:54;;;;;;;1.75;0.80;;;;;;;;;;4994410;28;20065;-58
2022/06/13 14:43:26;;;;;;;1.27;0.65;;;;;;;;;;4989162;28;20043;-59
2022/06/13 14:45:54;;;;;;;2.72;0.82;;;;;;;;;;4976041;28;20161;-57
2022/06/13 14:48:26;;;;;;;3.83;0.98;;;;;;;;;;5006033;28;20077;-58
2022/06/13 14:51:00;;;;;;;1.80;0.75;;;;;;;;;;5009397;28;20042;-57
2022/06/13 14:53:36;;;;;;;1.38;0.80;;;;;;;;;;5010726;28;20479;-58
2022/06/13 14:56:08;;;;;;;3.92;0.85;;;;;;;;;;5010397;28;20081;-59
2022/06/13 14:58:46;;;;;;;1.27;0.85;;;;;;;;;;4996216;28;20042;-58
2022/06/13 15:01:20;;;;;;;2.00;0.70;;;;;;;;;;4995332;28;20990;-58
2022/06/13 15:04:08;;;;;;;3.42;0.80;;;;;;;;;;4971608;28;20092;-62
2022/06/13 15:06:35;;;;;;;2.45;0.73;;;;;;;;;;4996214;28;20042;-58
2022/06/13 15:09:08;;;;;;;1.75;0.70;;;;;;;;;;4991733;28;20097;-57
2022/06/13 15:11:38;;;;;;;3.28;0.90;;;;;;;;;;5004036;28;20129;-58
2022/06/13 15:14:04;;;;;;;2.47;1.23;;;;;;;;;;5012367;28;20490;-58
2022/06/13 15:16:31;;;;;;;1.63;0.70;;;;;;;;;;5013190;28;20037;-58
2022/06/13 15:19:05;;;;;;;0.82;0.40;;;;;;;;;;5000848;28;20080;-57
2022/06/13 15:21:33;;;;;;;2.67;0.60;;;;;;;;;;4992717;28;20121;-57
2022/06/13 15:24:00;;;;;;;3.40;0.60;;;;;;;;;;4973874;28;20049;-58
2022/06/13 15:26:29;;;;;;;2.03;0.80;;;;;;;;;;4993245;28;20046;-58
2022/06/13 15:29:04;;;;;;;3.13;0.80;;;;;;;;;;4991829;28;20046;-58
2022/06/13 15:31:30;;;;;;;1.48;0.50;;;;;;;;;;4995230;28;20129;-58
2022/06/13 15:34:15;;;;;;;5.97;1.10;;;;;;;;;;4991789;28;20046;-58